Portada
METAR-TAF:

METAR-TAF

Aeroports :

Agen, França

latitud: 44-11N, longitud: 000-36E, altitud: 61 m

Observació

L'informe es va fer fa 40 minuts, a les 02:00 UTC
Vent 16 kt del Oest
Temperatura 14°C
Humitat 88%
Pressió 995 hPa
Visibilitat 10 km o més
Cel cobert a una alçada de 1700 ft
pluja, plugim

METAR: LFBA 130200Z AUTO 27016KT 9999 -RADZ OVC017 14/12 Q0995

Hora: 03:40 (02:40 UTC)

Pronòstic

L'informe es va fer fa 9 hores i 40 minuts, a les 17:00 UTC
Pronòstic vàlid del 12 a les 18 UTC al 13 a les 03 UTC
Vent 12 kt del Sud-Oest
Visibilitat 10 km o més
Núvols disperses a una alçada de 2000 ft
Cel ennuvolat a una alçada de 3000 ft
Temporalment
l' 12 a les 18 UTC al 13 a les 03 UTC
Vent 15 kt del Oest/Sud-Oest amb ràfegues de 30 kt
Visibilitat: 3000 m
Cel ennuvolat a una alçada de 800 ft
pluja

TAF: LFBA 121700Z 1218/1303 22012KT 9999 SCT020 BKN030 TEMPO 1218/1303 24015G30KT 3000 RA BKN008

Observacions i pronòstics meteorològics de més de 4000 aeroports (METAR i TAF).

Les estacions disponibles són els punts grocs i vermells al mapa.

Posi el ratolí al punt desitjat per veure el nom de l'estació.

Feu clic per veure les observacions i els pronòstics meteorològics.

Per canviar el mapa: feu clic els botons verds amb una creu de color negre per apropar; al botó verd amb un guió per allunyar la imatge; o en les fletxes verdes per a mapes adjacents.


METAR-TAF: